sensor_id;sensor_type;location;lat;lon;timestamp;P1;durP1;ratioP1;P2;durP2;ratioP2
65279;SDS011;51878;55.748;48.742;2023-06-22T00:02:32;2.53;;;1.80;;
65279;SDS011;51878;55.748;48.742;2023-06-22T00:07:36;2.20;;;1.80;;
65279;SDS011;51878;55.748;48.742;2023-06-22T00:12:38;2.65;;;1.73;;
65279;SDS011;51878;55.748;48.742;2023-06-22T00:17:41;2.13;;;1.92;;
65279;SDS011;51878;55.748;48.742;2023-06-22T00:22:43;4.65;;;2.13;;
65279;SDS011;51878;55.748;48.742;2023-06-22T00:27:46;3.15;;;1.92;;
65279;SDS011;51878;55.748;48.742;2023-06-22T00:32:49;3.83;;;1.75;;
65279;SDS011;51878;55.748;48.742;2023-06-22T00:37:51;2.15;;;1.90;;
65279;SDS011;51878;55.748;48.742;2023-06-22T00:42:55;2.60;;;1.92;;
65279;SDS011;51878;55.748;48.742;2023-06-22T00:48:00;3.88;;;2.17;;
65279;SDS011;51878;55.748;48.742;2023-06-22T00:53:08;3.47;;;1.80;;
65279;SDS011;51878;55.748;48.742;2023-06-22T00:58:11;3.35;;;1.98;;
65279;SDS011;51878;55.748;48.742;2023-06-22T01:03:14;2.22;;;2.00;;
65279;SDS011;51878;55.748;48.742;2023-06-22T01:08:33;2.90;;;2.00;;
65279;SDS011;51878;55.748;48.742;2023-06-22T01:13:48;3.35;;;2.00;;
65279;SDS011;51878;55.748;48.742;2023-06-22T01:19:09;2.28;;;1.77;;
65279;SDS011;51878;55.748;48.742;2023-06-22T01:24:24;4.55;;;1.77;;
65279;SDS011;51878;55.748;48.742;2023-06-22T01:29:32;3.10;;;2.28;;
65279;SDS011;51878;55.748;48.742;2023-06-22T01:34:36;2.53;;;1.83;;
65279;SDS011;51878;55.748;48.742;2023-06-22T01:39:41;2.10;;;1.90;;
65279;SDS011;51878;55.748;48.742;2023-06-22T01:44:44;3.75;;;2.17;;
65279;SDS011;51878;55.748;48.742;2023-06-22T01:49:47;2.72;;;2.00;;
65279;SDS011;51878;55.748;48.742;2023-06-22T01:54:53;3.80;;;2.20;;
65279;SDS011;51878;55.748;48.742;2023-06-22T02:00:07;2.28;;;2.05;;
65279;SDS011;51878;55.748;48.742;2023-06-22T02:05:17;2.03;;;1.80;;
65279;SDS011;51878;55.748;48.742;2023-06-22T02:10:21;3.58;;;2.03;;
65279;SDS011;51878;55.748;48.742;2023-06-22T02:15:25;2.40;;;1.85;;
65279;SDS011;51878;55.748;48.742;2023-06-22T02:20:28;2.03;;;1.70;;
65279;SDS011;51878;55.748;48.742;2023-06-22T02:25:31;2.08;;;1.77;;
65279;SDS011;51878;55.748;48.742;2023-06-22T02:30:37;2.10;;;1.90;;
65279;SDS011;51878;55.748;48.742;2023-06-22T02:35:39;3.33;;;1.98;;
65279;SDS011;51878;55.748;48.742;2023-06-22T02:40:43;2.88;;;1.90;;
65279;SDS011;51878;55.748;48.742;2023-06-22T02:45:45;3.10;;;2.00;;
65279;SDS011;51878;55.748;48.742;2023-06-22T02:50:47;3.97;;;2.03;;
65279;SDS011;51878;55.748;48.742;2023-06-22T02:55:49;3.40;;;2.05;;
65279;SDS011;51878;55.748;48.742;2023-06-22T03:00:52;3.40;;;2.10;;
65279;SDS011;51878;55.748;48.742;2023-06-22T03:05:54;2.78;;;1.90;;
65279;SDS011;51878;55.748;48.742;2023-06-22T03:10:57;5.45;;;2.55;;
65279;SDS011;51878;55.748;48.742;2023-06-22T03:15:59;2.22;;;2.03;;
65279;SDS011;51878;55.748;48.742;2023-06-22T03:21:03;4.35;;;2.30;;
65279;SDS011;51878;55.748;48.742;2023-06-22T03:26:08;3.65;;;2.45;;
65279;SDS011;51878;55.748;48.742;2023-06-22T03:31:10;4.93;;;2.17;;
65279;SDS011;51878;55.748;48.742;2023-06-22T03:36:13;3.30;;;2.25;;
65279;SDS011;51878;55.748;48.742;2023-06-22T03:41:15;4.18;;;2.47;;
65279;SDS011;51878;55.748;48.742;2023-06-22T03:46:18;4.50;;;2.30;;
65279;SDS011;51878;55.748;48.742;2023-06-22T03:51:21;4.43;;;2.67;;
65279;SDS011;51878;55.748;48.742;2023-06-22T03:56:24;3.63;;;2.17;;
65279;SDS011;51878;55.748;48.742;2023-06-22T04:01:26;3.38;;;2.28;;
65279;SDS011;51878;55.748;48.742;2023-06-22T04:06:28;8.40;;;3.15;;
65279;SDS011;51878;55.748;48.742;2023-06-22T04:11:31;4.20;;;2.35;;
65279;SDS011;51878;55.748;48.742;2023-06-22T04:16:33;3.40;;;2.20;;
65279;SDS011;51878;55.748;48.742;2023-06-22T04:21:35;4.10;;;2.58;;
65279;SDS011;51878;55.748;48.742;2023-06-22T04:26:39;2.40;;;2.20;;
65279;SDS011;51878;55.748;48.742;2023-06-22T04:31:43;3.15;;;2.17;;
65279;SDS011;51878;55.748;48.742;2023-06-22T04:36:45;2.38;;;2.15;;
65279;SDS011;51878;55.748;48.742;2023-06-22T04:41:48;3.42;;;2.40;;
65279;SDS011;51878;55.748;48.742;2023-06-22T04:46:54;3.05;;;2.00;;
65279;SDS011;51878;55.748;48.742;2023-06-22T04:52:05;4.35;;;2.53;;
65279;SDS011;51878;55.748;48.742;2023-06-22T04:57:09;2.92;;;2.40;;
65279;SDS011;51878;55.748;48.742;2023-06-22T05:02:12;5.75;;;2.47;;
65279;SDS011;51878;55.748;48.742;2023-06-22T05:07:14;4.90;;;2.35;;
65279;SDS011;51878;55.748;48.742;2023-06-22T05:12:16;6.05;;;2.33;;
65279;SDS011;51878;55.748;48.742;2023-06-22T05:17:18;4.03;;;2.40;;
65279;SDS011;51878;55.748;48.742;2023-06-22T05:22:21;4.68;;;2.70;;
65279;SDS011;51878;55.748;48.742;2023-06-22T05:27:26;3.70;;;2.55;;
65279;SDS011;51878;55.748;48.742;2023-06-22T05:32:28;3.08;;;2.42;;
65279;SDS011;51878;55.748;48.742;2023-06-22T05:37:30;3.60;;;2.60;;
65279;SDS011;51878;55.748;48.742;2023-06-22T05:42:32;5.53;;;2.50;;
65279;SDS011;51878;55.748;48.742;2023-06-22T05:47:35;2.85;;;2.10;;
65279;SDS011;51878;55.748;48.742;2023-06-22T05:52:37;2.53;;;2.22;;
65279;SDS011;51878;55.748;48.742;2023-06-22T05:57:39;2.60;;;1.70;;
65279;SDS011;51878;55.748;48.742;2023-06-22T06:02:42;2.22;;;1.92;;
65279;SDS011;51878;55.748;48.742;2023-06-22T06:07:46;2.42;;;2.20;;
65279;SDS011;51878;55.748;48.742;2023-06-22T06:12:51;3.08;;;2.75;;
65279;SDS011;51878;55.748;48.742;2023-06-22T06:17:54;6.22;;;2.35;;
65279;SDS011;51878;55.748;48.742;2023-06-22T06:22:56;3.45;;;2.05;;
65279;SDS011;51878;55.748;48.742;2023-06-22T06:27:59;4.35;;;2.58;;
65279;SDS011;51878;55.748;48.742;2023-06-22T06:33:01;8.82;;;3.00;;
65279;SDS011;51878;55.748;48.742;2023-06-22T06:38:04;7.28;;;2.90;;
65279;SDS011;51878;55.748;48.742;2023-06-22T06:43:06;2.88;;;2.20;;
65279;SDS011;51878;55.748;48.742;2023-06-22T06:48:08;7.10;;;3.15;;
65279;SDS011;51878;55.748;48.742;2023-06-22T06:53:11;3.42;;;2.88;;
65279;SDS011;51878;55.748;48.742;2023-06-22T06:58:15;4.50;;;2.80;;
65279;SDS011;51878;55.748;48.742;2023-06-22T07:03:18;5.80;;;3.30;;
65279;SDS011;51878;55.748;48.742;2023-06-22T07:08:20;3.42;;;2.63;;
65279;SDS011;51878;55.748;48.742;2023-06-22T07:13:22;2.90;;;2.70;;
65279;SDS011;51878;55.748;48.742;2023-06-22T07:18:27;3.42;;;2.80;;
65279;SDS011;51878;55.748;48.742;2023-06-22T07:23:29;3.75;;;2.75;;
65279;SDS011;51878;55.748;48.742;2023-06-22T07:28:31;2.95;;;2.65;;
65279;SDS011;51878;55.748;48.742;2023-06-22T07:33:38;2.88;;;2.67;;
65279;SDS011;51878;55.748;48.742;2023-06-22T07:38:40;3.47;;;2.60;;
65279;SDS011;51878;55.748;48.742;2023-06-22T07:43:43;14.82;;;4.03;;
65279;SDS011;51878;55.748;48.742;2023-06-22T07:48:45;4.85;;;3.13;;
65279;SDS011;51878;55.748;48.742;2023-06-22T07:53:47;10.90;;;4.43;;
65279;SDS011;51878;55.748;48.742;2023-06-22T07:58:50;15.90;;;5.18;;
65279;SDS011;51878;55.748;48.742;2023-06-22T08:03:52;6.32;;;4.32;;
65279;SDS011;51878;55.748;48.742;2023-06-22T08:08:54;3.50;;;3.10;;
65279;SDS011;51878;55.748;48.742;2023-06-22T08:13:58;5.07;;;3.42;;
65279;SDS011;51878;55.748;48.742;2023-06-22T08:19:01;5.38;;;3.70;;
65279;SDS011;51878;55.748;48.742;2023-06-22T08:24:03;3.97;;;3.58;;
65279;SDS011;51878;55.748;48.742;2023-06-22T08:29:06;4.03;;;3.63;;
65279;SDS011;51878;55.748;48.742;2023-06-22T08:34:08;3.85;;;3.42;;
65279;SDS011;51878;55.748;48.742;2023-06-22T08:39:13;4.00;;;3.60;;
65279;SDS011;51878;55.748;48.742;2023-06-22T08:44:17;4.72;;;3.53;;
65279;SDS011;51878;55.748;48.742;2023-06-22T08:49:20;7.05;;;4.07;;
65279;SDS011;51878;55.748;48.742;2023-06-22T08:54:22;3.53;;;3.20;;
65279;SDS011;51878;55.748;48.742;2023-06-22T08:59:25;7.20;;;3.20;;
65279;SDS011;51878;55.748;48.742;2023-06-22T09:04:27;4.40;;;3.63;;
65279;SDS011;51878;55.748;48.742;2023-06-22T09:09:29;4.15;;;3.58;;
65279;SDS011;51878;55.748;48.742;2023-06-22T09:14:32;3.88;;;3.28;;
65279;SDS011;51878;55.748;48.742;2023-06-22T09:19:34;4.60;;;3.45;;
65279;SDS011;51878;55.748;48.742;2023-06-22T09:24:36;5.93;;;3.70;;
65279;SDS011;51878;55.748;48.742;2023-06-22T09:29:38;14.80;;;3.80;;
65279;SDS011;51878;55.748;48.742;2023-06-22T09:34:41;3.53;;;3.15;;
65279;SDS011;51878;55.748;48.742;2023-06-22T09:39:43;3.83;;;3.40;;
65279;SDS011;51878;55.748;48.742;2023-06-22T09:44:45;7.25;;;4.32;;
65279;SDS011;51878;55.748;48.742;2023-06-22T09:49:48;3.70;;;3.30;;
65279;SDS011;51878;55.748;48.742;2023-06-22T09:54:50;4.07;;;3.38;;
65279;SDS011;51878;55.748;48.742;2023-06-22T09:59:52;5.07;;;3.58;;
65279;SDS011;51878;55.748;48.742;2023-06-22T10:04:54;3.67;;;3.38;;
65279;SDS011;51878;55.748;48.742;2023-06-22T10:09:57;3.60;;;3.28;;
65279;SDS011;51878;55.748;48.742;2023-06-22T10:14:59;4.65;;;3.75;;
65279;SDS011;51878;55.748;48.742;2023-06-22T10:20:03;4.68;;;3.72;;
65279;SDS011;51878;55.748;48.742;2023-06-22T10:25:12;3.85;;;3.40;;
65279;SDS011;51878;55.748;48.742;2023-06-22T10:30:17;4.07;;;3.67;;
65279;SDS011;51878;55.748;48.742;2023-06-22T10:35:19;3.95;;;3.55;;
65279;SDS011;51878;55.748;48.742;2023-06-22T10:40:21;4.30;;;3.13;;
65279;SDS011;51878;55.748;48.742;2023-06-22T10:45:24;4.97;;;3.15;;
65279;SDS011;51878;55.748;48.742;2023-06-22T10:50:26;3.53;;;3.22;;
65279;SDS011;51878;55.748;48.742;2023-06-22T10:55:28;4.65;;;3.33;;
65279;SDS011;51878;55.748;48.742;2023-06-22T11:00:40;3.72;;;3.33;;
65279;SDS011;51878;55.748;48.742;2023-06-22T11:05:43;3.85;;;3.33;;
65279;SDS011;51878;55.748;48.742;2023-06-22T11:10:45;3.95;;;3.08;;
65279;SDS011;51878;55.748;48.742;2023-06-22T11:15:47;3.53;;;3.22;;
65279;SDS011;51878;55.748;48.742;2023-06-22T11:20:52;3.60;;;3.30;;
65279;SDS011;51878;55.748;48.742;2023-06-22T11:25:54;3.80;;;3.25;;
65279;SDS011;51878;55.748;48.742;2023-06-22T11:30:57;4.85;;;3.40;;
65279;SDS011;51878;55.748;48.742;2023-06-22T11:36:00;5.20;;;3.42;;
65279;SDS011;51878;55.748;48.742;2023-06-22T11:41:03;4.40;;;3.50;;
65279;SDS011;51878;55.748;48.742;2023-06-22T11:46:05;4.50;;;3.88;;
65279;SDS011;51878;55.748;48.742;2023-06-22T11:51:08;4.28;;;3.70;;
65279;SDS011;51878;55.748;48.742;2023-06-22T11:56:10;4.32;;;3.92;;
65279;SDS011;51878;55.748;48.742;2023-06-22T12:01:12;6.28;;;4.32;;
65279;SDS011;51878;55.748;48.742;2023-06-22T12:06:17;4.85;;;4.07;;
65279;SDS011;51878;55.748;48.742;2023-06-22T12:11:19;4.15;;;3.42;;
65279;SDS011;51878;55.748;48.742;2023-06-22T12:16:22;4.80;;;4.07;;
65279;SDS011;51878;55.748;48.742;2023-06-22T12:21:27;6.05;;;4.32;;
65279;SDS011;51878;55.748;48.742;2023-06-22T12:26:30;5.22;;;4.63;;
65279;SDS011;51878;55.748;48.742;2023-06-22T12:31:32;5.53;;;3.92;;
65279;SDS011;51878;55.748;48.742;2023-06-22T12:36:35;4.07;;;3.53;;
65279;SDS011;51878;55.748;48.742;2023-06-22T12:41:37;3.38;;;3.05;;
65279;SDS011;51878;55.748;48.742;2023-06-22T12:46:40;3.53;;;2.85;;
65279;SDS011;51878;55.748;48.742;2023-06-22T12:51:42;2.97;;;2.40;;
65279;SDS011;51878;55.748;48.742;2023-06-22T12:56:45;2.47;;;2.28;;
65279;SDS011;51878;55.748;48.742;2023-06-22T13:01:48;2.70;;;2.38;;
65279;SDS011;51878;55.748;48.742;2023-06-22T13:06:51;2.53;;;2.33;;
65279;SDS011;51878;55.748;48.742;2023-06-22T13:11:53;8.30;;;2.55;;
65279;SDS011;51878;55.748;48.742;2023-06-22T13:16:55;4.15;;;2.65;;
65279;SDS011;51878;55.748;48.742;2023-06-22T13:21:58;3.42;;;2.70;;
65279;SDS011;51878;55.748;48.742;2023-06-22T13:27:01;2.83;;;2.50;;
65279;SDS011;51878;55.748;48.742;2023-06-22T13:32:03;3.53;;;2.40;;
65279;SDS011;51878;55.748;48.742;2023-06-22T13:37:08;3.88;;;2.53;;
65279;SDS011;51878;55.748;48.742;2023-06-22T13:42:11;2.40;;;2.20;;
65279;SDS011;51878;55.748;48.742;2023-06-22T13:47:13;2.80;;;2.60;;
65279;SDS011;51878;55.748;48.742;2023-06-22T13:52:15;3.97;;;2.42;;
65279;SDS011;51878;55.748;48.742;2023-06-22T13:57:18;2.88;;;2.42;;
65279;SDS011;51878;55.748;48.742;2023-06-22T14:02:20;4.20;;;2.92;;
65279;SDS011;51878;55.748;48.742;2023-06-22T14:07:22;3.97;;;3.20;;
65279;SDS011;51878;55.748;48.742;2023-06-22T14:12:25;5.05;;;3.10;;
65279;SDS011;51878;55.748;48.742;2023-06-22T14:17:28;6.32;;;3.72;;
65279;SDS011;51878;55.748;48.742;2023-06-22T14:22:30;4.68;;;3.80;;
65279;SDS011;51878;55.748;48.742;2023-06-22T14:27:32;7.03;;;3.75;;
65279;SDS011;51878;55.748;48.742;2023-06-22T14:32:35;6.03;;;3.85;;
65279;SDS011;51878;55.748;48.742;2023-06-22T14:37:37;3.55;;;3.13;;
65279;SDS011;51878;55.748;48.742;2023-06-22T14:42:39;5.05;;;3.83;;
65279;SDS011;51878;55.748;48.742;2023-06-22T14:47:41;3.80;;;3.42;;
65279;SDS011;51878;55.748;48.742;2023-06-22T14:52:44;4.07;;;3.38;;
65279;SDS011;51878;55.748;48.742;2023-06-22T14:57:46;3.58;;;3.05;;
65279;SDS011;51878;55.748;48.742;2023-06-22T15:02:48;3.28;;;2.97;;
65279;SDS011;51878;55.748;48.742;2023-06-22T15:07:51;3.85;;;3.53;;
65279;SDS011;51878;55.748;48.742;2023-06-22T15:12:53;3.80;;;3.30;;
65279;SDS011;51878;55.748;48.742;2023-06-22T15:17:55;3.95;;;3.28;;
65279;SDS011;51878;55.748;48.742;2023-06-22T15:22:58;3.67;;;3.25;;
65279;SDS011;51878;55.748;48.742;2023-06-22T15:28:00;4.13;;;3.60;;
65279;SDS011;51878;55.748;48.742;2023-06-22T15:33:02;4.32;;;3.63;;
65279;SDS011;51878;55.748;48.742;2023-06-22T15:38:05;3.75;;;3.40;;
65279;SDS011;51878;55.748;48.742;2023-06-22T15:43:11;6.18;;;3.50;;
65279;SDS011;51878;55.748;48.742;2023-06-22T15:48:16;3.38;;;3.08;;
65279;SDS011;51878;55.748;48.742;2023-06-22T15:53:18;7.95;;;3.30;;
65279;SDS011;51878;55.748;48.742;2023-06-22T15:58:20;7.78;;;3.50;;
65279;SDS011;51878;55.748;48.742;2023-06-22T16:03:23;3.40;;;3.10;;
65279;SDS011;51878;55.748;48.742;2023-06-22T16:08:25;4.75;;;3.20;;
65279;SDS011;51878;55.748;48.742;2023-06-22T16:13:36;4.85;;;3.00;;
65279;SDS011;51878;55.748;48.742;2023-06-22T16:18:40;3.85;;;3.17;;
65279;SDS011;51878;55.748;48.742;2023-06-22T16:23:43;3.67;;;3.28;;
65279;SDS011;51878;55.748;48.742;2023-06-22T16:28:46;3.85;;;3.38;;
65279;SDS011;51878;55.748;48.742;2023-06-22T16:33:48;4.20;;;3.00;;
65279;SDS011;51878;55.748;48.742;2023-06-22T16:38:51;5.15;;;3.95;;
65279;SDS011;51878;55.748;48.742;2023-06-22T16:43:53;4.75;;;3.40;;
65279;SDS011;51878;55.748;48.742;2023-06-22T16:48:58;4.03;;;3.20;;
65279;SDS011;51878;55.748;48.742;2023-06-22T16:54:01;8.57;;;3.35;;
65279;SDS011;51878;55.748;48.742;2023-06-22T16:59:03;3.70;;;3.40;;
65279;SDS011;51878;55.748;48.742;2023-06-22T17:04:09;4.53;;;3.53;;
65279;SDS011;51878;55.748;48.742;2023-06-22T17:09:13;4.53;;;3.92;;
65279;SDS011;51878;55.748;48.742;2023-06-22T17:14:17;6.05;;;3.88;;
65279;SDS011;51878;55.748;48.742;2023-06-22T17:19:22;5.18;;;3.10;;
65279;SDS011;51878;55.748;48.742;2023-06-22T17:24:25;4.80;;;3.60;;
65279;SDS011;51878;55.748;48.742;2023-06-22T17:29:28;6.32;;;3.75;;
65279;SDS011;51878;55.748;48.742;2023-06-22T17:34:47;4.35;;;3.55;;
65279;SDS011;51878;55.748;48.742;2023-06-22T17:39:55;5.70;;;3.67;;
65279;SDS011;51878;55.748;48.742;2023-06-22T17:45:22;4.43;;;3.58;;
65279;SDS011;51878;55.748;48.742;2023-06-22T17:50:25;5.97;;;4.00;;
65279;SDS011;51878;55.748;48.742;2023-06-22T17:55:27;5.68;;;4.00;;
65279;SDS011;51878;55.748;48.742;2023-06-22T18:00:30;3.85;;;3.35;;
65279;SDS011;51878;55.748;48.742;2023-06-22T18:05:34;4.30;;;3.58;;
65279;SDS011;51878;55.748;48.742;2023-06-22T18:10:50;5.60;;;3.85;;
65279;SDS011;51878;55.748;48.742;2023-06-22T18:15:55;7.00;;;4.43;;
65279;SDS011;51878;55.748;48.742;2023-06-22T18:20:59;5.30;;;3.97;;
65279;SDS011;51878;55.748;48.742;2023-06-22T18:26:03;5.05;;;3.97;;
65279;SDS011;51878;55.748;48.742;2023-06-22T18:31:06;6.25;;;3.85;;
65279;SDS011;51878;55.748;48.742;2023-06-22T18:36:09;6.70;;;3.90;;
65279;SDS011;51878;55.748;48.742;2023-06-22T18:41:24;5.30;;;3.90;;
65279;SDS011;51878;55.748;48.742;2023-06-22T18:46:38;8.40;;;4.30;;
65279;SDS011;51878;55.748;48.742;2023-06-22T18:51:50;5.40;;;4.25;;
65279;SDS011;51878;55.748;48.742;2023-06-22T18:56:54;4.90;;;4.10;;
65279;SDS011;51878;55.748;48.742;2023-06-22T19:02:00;6.80;;;4.63;;
65279;SDS011;51878;55.748;48.742;2023-06-22T19:07:02;5.25;;;4.30;;
65279;SDS011;51878;55.748;48.742;2023-06-22T19:17:23;9.48;;;5.38;;
65279;SDS011;51878;55.748;48.742;2023-06-22T19:22:42;8.40;;;5.28;;
65279;SDS011;51878;55.748;48.742;2023-06-22T19:27:47;7.93;;;4.95;;
65279;SDS011;51878;55.748;48.742;2023-06-22T19:32:52;8.35;;;4.78;;
65279;SDS011;51878;55.748;48.742;2023-06-22T19:37:58;8.55;;;5.43;;
65279;SDS011;51878;55.748;48.742;2023-06-22T19:43:00;8.32;;;5.13;;
65279;SDS011;51878;55.748;48.742;2023-06-22T19:48:02;9.50;;;5.68;;
65279;SDS011;51878;55.748;48.742;2023-06-22T19:53:09;7.00;;;6.00;;
65279;SDS011;51878;55.748;48.742;2023-06-22T19:58:12;7.13;;;5.88;;
65279;SDS011;51878;55.748;48.742;2023-06-22T20:03:31;9.73;;;6.07;;
65279;SDS011;51878;55.748;48.742;2023-06-22T20:08:47;6.80;;;5.50;;
65279;SDS011;51878;55.748;48.742;2023-06-22T20:13:51;10.95;;;6.05;;
65279;SDS011;51878;55.748;48.742;2023-06-22T20:19:07;6.70;;;5.10;;
65279;SDS011;51878;55.748;48.742;2023-06-22T20:24:13;9.32;;;5.32;;
65279;SDS011;51878;55.748;48.742;2023-06-22T20:34:40;5.60;;;5.00;;
65279;SDS011;51878;55.748;48.742;2023-06-22T20:39:46;6.28;;;4.70;;
65279;SDS011;51878;55.748;48.742;2023-06-22T20:44:50;6.65;;;4.80;;
65279;SDS011;51878;55.748;48.742;2023-06-22T20:49:53;6.07;;;4.50;;
65279;SDS011;51878;55.748;48.742;2023-06-22T20:55:01;8.95;;;5.50;;
65279;SDS011;51878;55.748;48.742;2023-06-22T21:00:04;7.20;;;5.50;;
65279;SDS011;51878;55.748;48.742;2023-06-22T21:05:07;6.72;;;5.07;;
65279;SDS011;51878;55.748;48.742;2023-06-22T21:10:10;8.77;;;5.82;;
65279;SDS011;51878;55.748;48.742;2023-06-22T21:15:12;12.95;;;7.10;;
65279;SDS011;51878;55.748;48.742;2023-06-22T21:20:15;11.15;;;6.45;;
65279;SDS011;51878;55.748;48.742;2023-06-22T21:25:17;10.02;;;6.75;;
65279;SDS011;51878;55.748;48.742;2023-06-22T21:30:20;12.60;;;7.38;;
65279;SDS011;51878;55.748;48.742;2023-06-22T21:35:22;12.30;;;7.57;;
65279;SDS011;51878;55.748;48.742;2023-06-22T21:40:24;9.60;;;7.07;;
65279;SDS011;51878;55.748;48.742;2023-06-22T21:45:27;11.27;;;7.00;;
65279;SDS011;51878;55.748;48.742;2023-06-22T21:50:29;10.65;;;6.78;;
65279;SDS011;51878;55.748;48.742;2023-06-22T21:55:31;9.40;;;7.22;;
65279;SDS011;51878;55.748;48.742;2023-06-22T22:00:34;11.07;;;7.63;;
65279;SDS011;51878;55.748;48.742;2023-06-22T22:05:36;14.38;;;7.53;;
65279;SDS011;51878;55.748;48.742;2023-06-22T22:10:38;11.07;;;7.70;;
65279;SDS011;51878;55.748;48.742;2023-06-22T22:15:41;8.75;;;7.05;;
65279;SDS011;51878;55.748;48.742;2023-06-22T22:20:43;9.90;;;7.03;;
65279;SDS011;51878;55.748;48.742;2023-06-22T22:25:46;11.50;;;7.93;;
65279;SDS011;51878;55.748;48.742;2023-06-22T22:30:50;11.63;;;8.18;;
65279;SDS011;51878;55.748;48.742;2023-06-22T22:35:53;13.02;;;7.82;;
65279;SDS011;51878;55.748;48.742;2023-06-22T22:40:55;10.90;;;8.13;;
65279;SDS011;51878;55.748;48.742;2023-06-22T22:45:58;14.93;;;8.10;;
65279;SDS011;51878;55.748;48.742;2023-06-22T22:51:00;9.40;;;7.85;;
65279;SDS011;51878;55.748;48.742;2023-06-22T22:56:05;10.00;;;8.68;;
65279;SDS011;51878;55.748;48.742;2023-06-22T23:01:07;9.23;;;7.93;;
65279;SDS011;51878;55.748;48.742;2023-06-22T23:06:10;12.40;;;8.50;;
65279;SDS011;51878;55.748;48.742;2023-06-22T23:11:12;12.18;;;7.85;;
65279;SDS011;51878;55.748;48.742;2023-06-22T23:16:14;8.90;;;7.88;;
65279;SDS011;51878;55.748;48.742;2023-06-22T23:21:17;10.52;;;7.72;;
65279;SDS011;51878;55.748;48.742;2023-06-22T23:26:19;11.13;;;8.23;;
65279;SDS011;51878;55.748;48.742;2023-06-22T23:31:21;9.38;;;8.35;;
65279;SDS011;51878;55.748;48.742;2023-06-22T23:36:24;11.77;;;8.40;;
65279;SDS011;51878;55.748;48.742;2023-06-22T23:41:26;8.80;;;7.55;;
65279;SDS011;51878;55.748;48.742;2023-06-22T23:46:29;9.23;;;8.30;;
65279;SDS011;51878;55.748;48.742;2023-06-22T23:51:33;11.50;;;8.63;;
65279;SDS011;51878;55.748;48.742;2023-06-22T23:56:38;10.23;;;9.02;;
